Vanquish — PHCU — position and weather

sailwx.info

Track history (hours):
 
Tides and Currents Weather Stations Pressure Air Temp Water Temp Dewpoint Dewpoint Depression Visibility Wind Speed Wind Dir Waves Ship Positions

Vanquish

Last reported at 2016-May-26 06:30 UTC. Time now 2016-May-26 06:47 UTC.
Position N 49°56' W 004°54'.

MMSI: 246138952.

Date/timePositionNaut miles runAvg speedWind from/ knotsBaromVisibWave heightAir tempDewpointWater temp
2016-May-26 06:30N 49°56' W 004°54'1111.6
2016-May-26 05:33N 49°58' W 004°37'1212.1
2016-May-26 04:33N 50°01' W 004°19'1312.8
2016-May-26 03:33N 50°03' W 003°59'1413.6
2016-May-26 02:34N 50°06' W 003°39'1313.2
2016-May-26 01:33N 50°08' W 003°18'1212.4
2016-May-26 00:34N 50°09' W 002°59'1111.4
2016-May-25 23:34N 50°11' W 002°42'8011.4
2016-May-25 16:33N 50°27' W 000°39'1414.0
2016-May-25 15:34N 50°30' W 000°17'1313.3
2016-May-25 14:34N 50°33' E 000°03'1312.5
2016-May-25 13:33N 50°36' E 000°23'1211.5
2016-May-25 12:28N 50°41' E 000°41'2311.8
2016-May-25 10:33N 50°55' E 001°09'1414.1
2016-May-25 09:33N 51°04' E 001°26'1515.2
2016-May-25 08:33N 51°13' E 001°45'1413.5
2016-May-25 07:33N 51°25' E 001°56'1211.8
2016-May-25 06:33N 51°34' E 002°07'1111.0
2016-May-25 05:32N 51°43' E 002°19'52 9.6
2016-May-25 00:09N 52°03' E 003°36'711.2
2016-May-24 23:33N 52°03' E 003°47'1010.2
2016-May-24 22:33N 51°60' E 004°03'1212.4
2016-May-24 21:33N 51°54' E 004°21'3 2.7
2016-May-24 20:33N 51°53' E 004°25'0 0.0
2016-May-24 19:33N 51°53' E 004°25'0 0.0
2016-May-24 18:33N 51°53' E 004°25'0 0.0
2016-May-24 17:33N 51°53' E 004°25'0 0.0
2016-May-24 16:33N 51°53' E 004°25'0 0.0
2016-May-24 15:33N 51°53' E 004°25'0 0.0
2016-May-24 14:33N 51°53' E 004°25'0 0.0
2016-May-24 13:33N 51°53' E 004°25'0 0.0
2016-May-24 12:33N 51°53' E 004°25'0 0.0
2016-May-24 11:33N 51°53' E 004°25'0 0.0
2016-May-24 10:33N 51°53' E 004°25'6 5.9
2016-May-24 09:33N 51°54' E 004°16'6 6.2
2016-May-24 08:33N 51°58' E 004°07'1 1.2
2016-May-24 07:32N 51°57' E 004°09'0 0.0
2016-May-24 06:32N 51°57' E 004°09'0 0.0
2016-May-24 05:32N 51°57' E 004°09'0 0.0
2016-May-24 04:32N 51°57' E 004°09'0 0.0
2016-May-24 03:32N 51°57' E 004°09'0 0.0
2016-May-24 02:32N 51°57' E 004°09'0 0.0
2016-May-24 01:32N 51°57' E 004°09'0 0.0
2016-May-24 00:32N 51°57' E 004°09'0 0.0
2016-May-23 23:29N 51°57' E 004°09'0 0.0
2016-May-23 22:32N 51°57' E 004°09'0 0.0
2016-May-23 21:32N 51°57' E 004°09'0 0.0
2016-May-23 20:32N 51°57' E 004°09'0 0.0
2016-May-23 19:32N 51°57' E 004°09'0 0.0
2016-May-23 18:32N 51°57' E 004°09'0 0.0
2016-May-23 17:32N 51°57' E 004°09'0 0.0
2016-May-23 16:32N 51°57' E 004°09'0 0.0
2016-May-23 15:32N 51°57' E 004°09'0 0.0
2016-May-23 14:32N 51°57' E 004°09'0 0.0
2016-May-23 13:32N 51°57' E 004°09'0 0.0
2016-May-23 12:29N 51°57' E 004°09'0 0.0
2016-May-23 11:32N 51°57' E 004°09'0 0.0
2016-May-23 10:32N 51°57' E 004°09'0 0.0
2016-May-23 09:32N 51°57' E 004°09'0 0.0
2016-May-23 08:32N 51°57' E 004°09'0 0.0
2016-May-23 07:29N 51°57' E 004°09'0 0.0
2016-May-23 06:32N 51°57' E 004°09'0 0.0
2016-May-23 05:32N 51°57' E 004°09'0 0.0
2016-May-23 04:32N 51°57' E 004°09'0 0.0
2016-May-23 03:32N 51°57' E 004°09'0 0.0
2016-May-23 02:32N 51°57' E 004°09'0 0.0
2016-May-23 01:32N 51°57' E 004°09'0 0.0
2016-May-23 00:32N 51°57' E 004°09'0 0.0
2016-May-22 23:32N 51°57' E 004°09'0 0.0
2016-May-22 22:32N 51°57' E 004°09'0 0.0
2016-May-22 21:32N 51°57' E 004°09'0 0.0
2016-May-22 20:32N 51°57' E 004°09'0 0.0
2016-May-22 19:32N 51°57' E 004°09'0 0.0
2016-May-22 18:32N 51°57' E 004°09'0 0.0
2016-May-22 17:32N 51°57' E 004°09'0 0.0
2016-May-22 16:32N 51°57' E 004°09'0 0.0
2016-May-22 15:32N 51°57' E 004°09'0 0.0
2016-May-22 14:32N 51°57' E 004°09'0 0.0
2016-May-22 13:32N 51°57' E 004°09'0 0.0
2016-May-22 12:32N 51°57' E 004°09'0 0.0
2016-May-22 11:29N 51°57' E 004°09'0 0.0
2016-May-22 10:32N 51°57' E 004°09'0 0.0
2016-May-22 09:32N 51°57' E 004°09'0 0.0
2016-May-22 08:32N 51°57' E 004°09'0 0.0
2016-May-22 07:32N 51°57' E 004°09'0 0.0
2016-May-22 06:32N 51°57' E 004°09'0 0.0
2016-May-22 05:32N 51°57' E 004°09'0 0.0
2016-May-22 04:32N 51°57' E 004°09'0 0.0
2016-May-22 03:32N 51°57' E 004°09'0 0.0
2016-May-22 02:32N 51°57' E 004°09'0 0.0
2016-May-22 01:32N 51°57' E 004°09'0 0.0
2016-May-22 00:32N 51°57' E 004°09'0 0.0
2016-May-21 23:32N 51°57' E 004°09'0 0.0
2016-May-21 22:32N 51°57' E 004°09'0 0.0
2016-May-21 21:32N 51°57' E 004°09'0 0.0
2016-May-21 20:32N 51°57' E 004°09'0 0.0
2016-May-21 19:32N 51°57' E 004°09'0 0.0
2016-May-21 18:32N 51°57' E 004°09'0 0.0
2016-May-21 17:32N 51°57' E 004°09'0 0.0
2016-May-21 16:32N 51°57' E 004°09'0 0.0
2016-May-21 15:26N 51°57' E 004°09'0 0.0
2016-May-21 14:32N 51°57' E 004°09'0 0.0
2016-May-21 13:32N 51°57' E 004°09'0 0.0
2016-May-21 12:29N 51°57' E 004°09'0 0.0
2016-May-21 11:32N 51°57' E 004°09'0 0.0
2016-May-21 10:32N 51°57' E 004°09'0 0.0
2016-May-21 09:32N 51°57' E 004°09'0 0.0
2016-May-21 08:32N 51°57' E 004°09'0 0.0
2016-May-21 07:32N 51°57' E 004°09'0 0.0
2016-May-21 06:32N 51°57' E 004°09'0 0.0
2016-May-21 05:32N 51°57' E 004°09'0 0.0
2016-May-21 04:32N 51°57' E 004°09'0 0.0
2016-May-21 03:32N 51°57' E 004°09'0 0.0
2016-May-21 02:32N 51°57' E 004°09'0 0.0
2016-May-21 01:32N 51°57' E 004°09'0 0.0
2016-May-21 00:32N 51°57' E 004°09'0 0.0
2016-May-20 23:32N 51°57' E 004°09'0 0.0
2016-May-20 22:29N 51°57' E 004°09'0 0.0
2016-May-20 21:32N 51°57' E 004°09'0 0.0
2016-May-20 20:32N 51°57' E 004°09'0 0.0
2016-May-20 19:32N 51°57' E 004°09'0 0.0
2016-May-20 18:32N 51°57' E 004°09'0 0.0
2016-May-20 17:32N 51°57' E 004°09'0 0.0
2016-May-20 16:32N 51°57' E 004°09'0 0.0
2016-May-20 15:32N 51°57' E 004°09'0 0.0
2016-May-20 14:32N 51°57' E 004°09'0 0.0
2016-May-20 13:32N 51°57' E 004°09'0 0.0
2016-May-20 12:32N 51°57' E 004°09'0 0.0
2016-May-20 11:32N 51°57' E 004°09'0 0.0
2016-May-20 10:32N 51°57' E 004°09'0 0.0
2016-May-20 09:32N 51°57' E 004°09'0 0.0
2016-May-20 08:32N 51°57' E 004°09'0 0.0
2016-May-20 07:32N 51°57' E 004°09'0 0.0
2016-May-20 06:32N 51°57' E 004°09'0 0.0
2016-May-20 05:32N 51°57' E 004°09'0 0.0
2016-May-20 04:32N 51°57' E 004°09'0 0.0
2016-May-20 03:31N 51°57' E 004°09'0 0.0
2016-May-20 02:32N 51°57' E 004°09'0 0.0
2016-May-20 01:32N 51°57' E 004°09'0 0.0
2016-May-20 00:32N 51°57' E 004°09'0 0.0
2016-May-19 23:31N 51°57' E 004°09'0 0.0
2016-May-19 22:31N 51°57' E 004°09'0 0.0
2016-May-19 21:31N 51°57' E 004°09'0 0.0
2016-May-19 20:32N 51°57' E 004°09'0 0.0
2016-May-19 19:31N 51°57' E 004°09'0 0.0
2016-May-19 18:31N 51°57' E 004°09'0 0.0
2016-May-19 17:32N 51°57' E 004°09'0 0.0
2016-May-19 16:32N 51°57' E 004°09'0 0.0
2016-May-19 15:32N 51°57' E 004°09'0 0.0
2016-May-19 14:32N 51°57' E 004°09'0 0.0
2016-May-19 13:31N 51°57' E 004°09'0 0.0
2016-May-19 12:31N 51°57' E 004°09'0 0.0
2016-May-19 11:31N 51°57' E 004°09'0 0.0
2016-May-19 10:32N 51°57' E 004°09'0 0.0
2016-May-19 09:31N 51°57' E 004°09'0 0.0
2016-May-19 08:32N 51°57' E 004°09'0 0.0
2016-May-19 07:31N 51°57' E 004°09'0 0.0
2016-May-19 06:31N 51°57' E 004°09'0 0.0
2016-May-19 05:31N 51°57' E 004°09'0 0.0
2016-May-19 04:31N 51°57' E 004°09'0 0.0
2016-May-19 03:31N 51°57' E 004°09'0 0.0
2016-May-19 02:31N 51°57' E 004°09'0 0.0
2016-May-19 01:31N 51°57' E 004°09'0 0.0
2016-May-19 00:31N 51°57' E 004°09'0 0.0
2016-May-18 23:31N 51°57' E 004°09'0 0.0
2016-May-18 22:31N 51°57' E 004°09'0 0.0
2016-May-18 21:31N 51°57' E 004°09'0 0.0
2016-May-18 20:31N 51°57' E 004°09'0 0.0
2016-May-18 19:31N 51°57' E 004°09'0 0.0
2016-May-18 18:31N 51°57' E 004°09'0 0.0
2016-May-18 17:31N 51°57' E 004°09'0 0.0
2016-May-18 16:31N 51°57' E 004°09'0 0.0
2016-May-18 15:31N 51°57' E 004°09'0 0.0
2016-May-18 14:28N 51°57' E 004°09'0 0.0
2016-May-18 13:31N 51°57' E 004°09'0 0.0
2016-May-18 12:31N 51°57' E 004°09'0 0.0
2016-May-18 11:31N 51°57' E 004°09'0 0.0
2016-May-18 10:31N 51°57' E 004°09'0 0.0
2016-May-18 09:31N 51°57' E 004°09'0 0.0
2016-May-18 08:31N 51°57' E 004°09'0 0.0
2016-May-18 07:31N 51°57' E 004°09'0 0.0
2016-May-18 06:31N 51°57' E 004°09'0 0.0
2016-May-18 05:31N 51°57' E 004°09'0 0.0
2016-May-18 04:31N 51°57' E 004°09'0 0.0
2016-May-18 03:31N 51°57' E 004°09'0 0.0
2016-May-18 02:31N 51°57' E 004°09'0 0.0
2016-May-18 01:31N 51°57' E 004°09'0 0.0
2016-May-18 00:31N 51°57' E 004°09'0 0.0
2016-May-17 23:31N 51°57' E 004°09'0 0.0
2016-May-17 22:28N 51°57' E 004°09'0 0.0
2016-May-17 21:31N 51°57' E 004°09'0 0.0
2016-May-17 20:25N 51°57' E 004°09'0 0.0
2016-May-17 19:31N 51°57' E 004°09'0 0.0
2016-May-17 18:31N 51°57' E 004°09'0 0.0
2016-May-17 17:31N 51°57' E 004°09'0 0.0
2016-May-17 16:31N 51°57' E 004°09'0 0.0
2016-May-17 15:31N 51°57' E 004°09'0 0.0
2016-May-17 14:31N 51°57' E 004°09'0 0.0
2016-May-17 13:31N 51°57' E 004°09'0 0.0
2016-May-17 12:31N 51°57' E 004°09'0 0.0
2016-May-17 11:31N 51°57' E 004°09'0 0.0
2016-May-17 10:31N 51°57' E 004°09'0 0.0
2016-May-17 09:31N 51°57' E 004°09'0 0.0
2016-May-17 08:31N 51°57' E 004°09'0 0.0
2016-May-17 07:31N 51°57' E 004°09'0 0.0
2016-May-17 06:31N 51°57' E 004°09'0 0.0
2016-May-17 05:28N 51°57' E 004°09'0 0.0
2016-May-17 04:31N 51°57' E 004°09'0 0.0
2016-May-17 03:31N 51°57' E 004°09'0 0.0
2016-May-17 02:31N 51°57' E 004°09'0 0.0
2016-May-17 01:31N 51°57' E 004°09'0 0.0
2016-May-17 00:31N 51°57' E 004°09'0 0.0
2016-May-16 23:31N 51°57' E 004°09'0 0.0
2016-May-16 22:31N 51°57' E 004°09'0 0.0
2016-May-16 21:31N 51°57' E 004°09'0 0.0
2016-May-16 20:31N 51°57' E 004°09'0 0.0
2016-May-16 19:31N 51°57' E 004°09'0 0.0
2016-May-16 18:31N 51°57' E 004°09'0 0.0
2016-May-16 17:31N 51°57' E 004°09'0 0.0
2016-May-16 16:31N 51°57' E 004°09'0 0.0
2016-May-16 15:31N 51°57' E 004°09'0 0.0
2016-May-16 14:31N 51°57' E 004°09'0 0.0
2016-May-16 13:31N 51°57' E 004°09'0 0.0
2016-May-16 12:31N 51°57' E 004°09'0 0.0
2016-May-16 11:31N 51°57' E 004°09'0 0.0
2016-May-16 10:31N 51°57' E 004°09'0 0.0
2016-May-16 09:28N 51°57' E 004°09'0 0.0
2016-May-16 08:31N 51°57' E 004°09'0 0.0
2016-May-16 07:31N 51°57' E 004°09'0 0.0
2016-May-16 06:31N 51°57' E 004°09'  
Track history (hours):
 
Tides and Currents Weather Stations Pressure Air Temp Water Temp Dewpoint Dewpoint Depression Visibility Wind Speed Wind Dir Waves Ship Positions

Vanquish

Last reported at 2016-May-26 06:30 UTC. Time now 2016-May-26 06:47 UTC.
Position N 49°56' W 004°54'.

MMSI: 246138952.

Date/timePositionNaut miles runAvg speedWind from/ knotsBaromVisibWave heightAir tempDewpointWater temp
2016-May-26 06:30N 49°56' W 004°54'1111.6
2016-May-26 05:33N 49°58' W 004°37'1212.1
2016-May-26 04:33N 50°01' W 004°19'1312.8
2016-May-26 03:33N 50°03' W 003°59'1413.6
2016-May-26 02:34N 50°06' W 003°39'1313.2
2016-May-26 01:33N 50°08' W 003°18'1212.4
2016-May-26 00:34N 50°09' W 002°59'1111.4
2016-May-25 23:34N 50°11' W 002°42'8011.4
2016-May-25 16:33N 50°27' W 000°39'1414.0
2016-May-25 15:34N 50°30' W 000°17'1313.3
2016-May-25 14:34N 50°33' E 000°03'1312.5
2016-May-25 13:33N 50°36' E 000°23'1211.5
2016-May-25 12:28N 50°41' E 000°41'2311.8
2016-May-25 10:33N 50°55' E 001°09'1414.1
2016-May-25 09:33N 51°04' E 001°26'1515.2
2016-May-25 08:33N 51°13' E 001°45'1413.5
2016-May-25 07:33N 51°25' E 001°56'1211.8
2016-May-25 06:33N 51°34' E 002°07'1111.0
2016-May-25 05:32N 51°43' E 002°19'52 9.6
2016-May-25 00:09N 52°03' E 003°36'711.2
2016-May-24 23:33N 52°03' E 003°47'1010.2
2016-May-24 22:33N 51°60' E 004°03'1212.4
2016-May-24 21:33N 51°54' E 004°21'3 2.7
2016-May-24 20:33N 51°53' E 004°25'0 0.0
2016-May-24 19:33N 51°53' E 004°25'0 0.0
2016-May-24 18:33N 51°53' E 004°25'0 0.0
2016-May-24 17:33N 51°53' E 004°25'0 0.0
2016-May-24 16:33N 51°53' E 004°25'0 0.0
2016-May-24 15:33N 51°53' E 004°25'0 0.0
2016-May-24 14:33N 51°53' E 004°25'0 0.0
2016-May-24 13:33N 51°53' E 004°25'0 0.0
2016-May-24 12:33N 51°53' E 004°25'0 0.0
2016-May-24 11:33N 51°53' E 004°25'0 0.0
2016-May-24 10:33N 51°53' E 004°25'6 5.9
2016-May-24 09:33N 51°54' E 004°16'6 6.2
2016-May-24 08:33N 51°58' E 004°07'1 1.2
2016-May-24 07:32N 51°57' E 004°09'0 0.0
2016-May-24 06:32N 51°57' E 004°09'0 0.0
2016-May-24 05:32N 51°57' E 004°09'0 0.0
2016-May-24 04:32N 51°57' E 004°09'0 0.0
2016-May-24 03:32N 51°57' E 004°09'0 0.0
2016-May-24 02:32N 51°57' E 004°09'0 0.0
2016-May-24 01:32N 51°57' E 004°09'0 0.0
2016-May-24 00:32N 51°57' E 004°09'0 0.0
2016-May-23 23:29N 51°57' E 004°09'0 0.0
2016-May-23 22:32N 51°57' E 004°09'0 0.0
2016-May-23 21:32N 51°57' E 004°09'0 0.0
2016-May-23 20:32N 51°57' E 004°09'0 0.0
2016-May-23 19:32N 51°57' E 004°09'0 0.0
2016-May-23 18:32N 51°57' E 004°09'0 0.0
2016-May-23 17:32N 51°57' E 004°09'0 0.0
2016-May-23 16:32N 51°57' E 004°09'0 0.0
2016-May-23 15:32N 51°57' E 004°09'0 0.0
2016-May-23 14:32N 51°57' E 004°09'0 0.0
2016-May-23 13:32N 51°57' E 004°09'0 0.0
2016-May-23 12:29N 51°57' E 004°09'0 0.0
2016-May-23 11:32N 51°57' E 004°09'0 0.0
2016-May-23 10:32N 51°57' E 004°09'0 0.0
2016-May-23 09:32N 51°57' E 004°09'0 0.0
2016-May-23 08:32N 51°57' E 004°09'0 0.0
2016-May-23 07:29N 51°57' E 004°09'0 0.0
2016-May-23 06:32N 51°57' E 004°09'0 0.0
2016-May-23 05:32N 51°57' E 004°09'0 0.0
2016-May-23 04:32N 51°57' E 004°09'0 0.0
2016-May-23 03:32N 51°57' E 004°09'0 0.0
2016-May-23 02:32N 51°57' E 004°09'0 0.0
2016-May-23 01:32N 51°57' E 004°09'0 0.0
2016-May-23 00:32N 51°57' E 004°09'0 0.0
2016-May-22 23:32N 51°57' E 004°09'0 0.0
2016-May-22 22:32N 51°57' E 004°09'0 0.0
2016-May-22 21:32N 51°57' E 004°09'0 0.0
2016-May-22 20:32N 51°57' E 004°09'0 0.0
2016-May-22 19:32N 51°57' E 004°09'0 0.0
2016-May-22 18:32N 51°57' E 004°09'0 0.0
2016-May-22 17:32N 51°57' E 004°09'0 0.0
2016-May-22 16:32N 51°57' E 004°09'0 0.0
2016-May-22 15:32N 51°57' E 004°09'0 0.0
2016-May-22 14:32N 51°57' E 004°09'0 0.0
2016-May-22 13:32N 51°57' E 004°09'0 0.0
2016-May-22 12:32N 51°57' E 004°09'0 0.0
2016-May-22 11:29N 51°57' E 004°09'0 0.0
2016-May-22 10:32N 51°57' E 004°09'0 0.0
2016-May-22 09:32N 51°57' E 004°09'0 0.0
2016-May-22 08:32N 51°57' E 004°09'0 0.0
2016-May-22 07:32N 51°57' E 004°09'0 0.0
2016-May-22 06:32N 51°57' E 004°09'0 0.0
2016-May-22 05:32N 51°57' E 004°09'0 0.0
2016-May-22 04:32N 51°57' E 004°09'0 0.0
2016-May-22 03:32N 51°57' E 004°09'0 0.0
2016-May-22 02:32N 51°57' E 004°09'0 0.0
2016-May-22 01:32N 51°57' E 004°09'0 0.0
2016-May-22 00:32N 51°57' E 004°09'0 0.0
2016-May-21 23:32N 51°57' E 004°09'0 0.0
2016-May-21 22:32N 51°57' E 004°09'0 0.0
2016-May-21 21:32N 51°57' E 004°09'0 0.0
2016-May-21 20:32N 51°57' E 004°09'0 0.0
2016-May-21 19:32N 51°57' E 004°09'0 0.0
2016-May-21 18:32N 51°57' E 004°09'0 0.0
2016-May-21 17:32N 51°57' E 004°09'0 0.0
2016-May-21 16:32N 51°57' E 004°09'0 0.0
2016-May-21 15:26N 51°57' E 004°09'0 0.0
2016-May-21 14:32N 51°57' E 004°09'0 0.0
2016-May-21 13:32N 51°57' E 004°09'0 0.0
2016-May-21 12:29N 51°57' E 004°09'0 0.0
2016-May-21 11:32N 51°57' E 004°09'0 0.0
2016-May-21 10:32N 51°57' E 004°09'0 0.0
2016-May-21 09:32N 51°57' E 004°09'0 0.0
2016-May-21 08:32N 51°57' E 004°09'0 0.0
2016-May-21 07:32N 51°57' E 004°09'0 0.0
2016-May-21 06:32N 51°57' E 004°09'0 0.0
2016-May-21 05:32N 51°57' E 004°09'0 0.0
2016-May-21 04:32N 51°57' E 004°09'0 0.0
2016-May-21 03:32N 51°57' E 004°09'0 0.0
2016-May-21 02:32N 51°57' E 004°09'0 0.0
2016-May-21 01:32N 51°57' E 004°09'0 0.0
2016-May-21 00:32N 51°57' E 004°09'0 0.0
2016-May-20 23:32N 51°57' E 004°09'0 0.0
2016-May-20 22:29N 51°57' E 004°09'0 0.0
2016-May-20 21:32N 51°57' E 004°09'0 0.0
2016-May-20 20:32N 51°57' E 004°09'0 0.0
2016-May-20 19:32N 51°57' E 004°09'0 0.0
2016-May-20 18:32N 51°57' E 004°09'0 0.0
2016-May-20 17:32N 51°57' E 004°09'0 0.0
2016-May-20 16:32N 51°57' E 004°09'0 0.0
2016-May-20 15:32N 51°57' E 004°09'0 0.0
2016-May-20 14:32N 51°57' E 004°09'0 0.0
2016-May-20 13:32N 51°57' E 004°09'0 0.0
2016-May-20 12:32N 51°57' E 004°09'0 0.0
2016-May-20 11:32N 51°57' E 004°09'0 0.0
2016-May-20 10:32N 51°57' E 004°09'0 0.0
2016-May-20 09:32N 51°57' E 004°09'0 0.0
2016-May-20 08:32N 51°57' E 004°09'0 0.0
2016-May-20 07:32N 51°57' E 004°09'0 0.0
2016-May-20 06:32N 51°57' E 004°09'0 0.0
2016-May-20 05:32N 51°57' E 004°09'0 0.0
2016-May-20 04:32N 51°57' E 004°09'0 0.0
2016-May-20 03:31N 51°57' E 004°09'0 0.0
2016-May-20 02:32N 51°57' E 004°09'0 0.0
2016-May-20 01:32N 51°57' E 004°09'0 0.0
2016-May-20 00:32N 51°57' E 004°09'0 0.0
2016-May-19 23:31N 51°57' E 004°09'0 0.0
2016-May-19 22:31N 51°57' E 004°09'0 0.0
2016-May-19 21:31N 51°57' E 004°09'0 0.0
2016-May-19 20:32N 51°57' E 004°09'0 0.0
2016-May-19 19:31N 51°57' E 004°09'0 0.0
2016-May-19 18:31N 51°57' E 004°09'0 0.0
2016-May-19 17:32N 51°57' E 004°09'0 0.0
2016-May-19 16:32N 51°57' E 004°09'0 0.0
2016-May-19 15:32N 51°57' E 004°09'0 0.0
2016-May-19 14:32N 51°57' E 004°09'0 0.0
2016-May-19 13:31N 51°57' E 004°09'0 0.0
2016-May-19 12:31N 51°57' E 004°09'0 0.0
2016-May-19 11:31N 51°57' E 004°09'0 0.0
2016-May-19 10:32N 51°57' E 004°09'0 0.0
2016-May-19 09:31N 51°57' E 004°09'0 0.0
2016-May-19 08:32N 51°57' E 004°09'0 0.0
2016-May-19 07:31N 51°57' E 004°09'0 0.0
2016-May-19 06:31N 51°57' E 004°09'0 0.0
2016-May-19 05:31N 51°57' E 004°09'0 0.0
2016-May-19 04:31N 51°57' E 004°09'0 0.0
2016-May-19 03:31N 51°57' E 004°09'0 0.0
2016-May-19 02:31N 51°57' E 004°09'0 0.0
2016-May-19 01:31N 51°57' E 004°09'0 0.0
2016-May-19 00:31N 51°57' E 004°09'0 0.0
2016-May-18 23:31N 51°57' E 004°09'0 0.0
2016-May-18 22:31N 51°57' E 004°09'0 0.0
2016-May-18 21:31N 51°57' E 004°09'0 0.0
2016-May-18 20:31N 51°57' E 004°09'0 0.0
2016-May-18 19:31N 51°57' E 004°09'0 0.0
2016-May-18 18:31N 51°57' E 004°09'0 0.0
2016-May-18 17:31N 51°57' E 004°09'0 0.0
2016-May-18 16:31N 51°57' E 004°09'0 0.0
2016-May-18 15:31N 51°57' E 004°09'0 0.0
2016-May-18 14:28N 51°57' E 004°09'0 0.0
2016-May-18 13:31N 51°57' E 004°09'0 0.0
2016-May-18 12:31N 51°57' E 004°09'0 0.0
2016-May-18 11:31N 51°57' E 004°09'0 0.0
2016-May-18 10:31N 51°57' E 004°09'0 0.0
2016-May-18 09:31N 51°57' E 004°09'0 0.0
2016-May-18 08:31N 51°57' E 004°09'0 0.0
2016-May-18 07:31N 51°57' E 004°09'0 0.0
2016-May-18 06:31N 51°57' E 004°09'0 0.0
2016-May-18 05:31N 51°57' E 004°09'0 0.0
2016-May-18 04:31N 51°57' E 004°09'0 0.0
2016-May-18 03:31N 51°57' E 004°09'0 0.0
2016-May-18 02:31N 51°57' E 004°09'0 0.0
2016-May-18 01:31N 51°57' E 004°09'0 0.0
2016-May-18 00:31N 51°57' E 004°09'0 0.0
2016-May-17 23:31N 51°57' E 004°09'0 0.0
2016-May-17 22:28N 51°57' E 004°09'0 0.0
2016-May-17 21:31N 51°57' E 004°09'0 0.0
2016-May-17 20:25N 51°57' E 004°09'0 0.0
2016-May-17 19:31N 51°57' E 004°09'0 0.0
2016-May-17 18:31N 51°57' E 004°09'0 0.0
2016-May-17 17:31N 51°57' E 004°09'0 0.0
2016-May-17 16:31N 51°57' E 004°09'0 0.0
2016-May-17 15:31N 51°57' E 004°09'0 0.0
2016-May-17 14:31N 51°57' E 004°09'0 0.0
2016-May-17 13:31N 51°57' E 004°09'0 0.0
2016-May-17 12:31N 51°57' E 004°09'0 0.0
2016-May-17 11:31N 51°57' E 004°09'0 0.0
2016-May-17 10:31N 51°57' E 004°09'0 0.0
2016-May-17 09:31N 51°57' E 004°09'0 0.0
2016-May-17 08:31N 51°57' E 004°09'0 0.0
2016-May-17 07:31N 51°57' E 004°09'0 0.0
2016-May-17 06:31N 51°57' E 004°09'0 0.0
2016-May-17 05:28N 51°57' E 004°09'0 0.0
2016-May-17 04:31N 51°57' E 004°09'0 0.0
2016-May-17 03:31N 51°57' E 004°09'0 0.0
2016-May-17 02:31N 51°57' E 004°09'0 0.0
2016-May-17 01:31N 51°57' E 004°09'0 0.0
2016-May-17 00:31N 51°57' E 004°09'0 0.0
2016-May-16 23:31N 51°57' E 004°09'0 0.0
2016-May-16 22:31N 51°57' E 004°09'0 0.0
2016-May-16 21:31N 51°57' E 004°09'0 0.0
2016-May-16 20:31N 51°57' E 004°09'0 0.0
2016-May-16 19:31N 51°57' E 004°09'0 0.0
2016-May-16 18:31N 51°57' E 004°09'0 0.0
2016-May-16 17:31N 51°57' E 004°09'0 0.0
2016-May-16 16:31N 51°57' E 004°09'0 0.0
2016-May-16 15:31N 51°57' E 004°09'0 0.0
2016-May-16 14:31N 51°57' E 004°09'0 0.0
2016-May-16 13:31N 51°57' E 004°09'0 0.0
2016-May-16 12:31N 51°57' E 004°09'0 0.0
2016-May-16 11:31N 51°57' E 004°09'0 0.0
2016-May-16 10:31N 51°57' E 004°09'0 0.0
2016-May-16 09:28N 51°57' E 004°09'0 0.0
2016-May-16 08:31N 51°57' E 004°09'0 0.0
2016-May-16 07:31N 51°57' E 004°09'0 0.0
2016-May-16 06:31N 51°57' E 004°09'  

Dump ship's entire track history